Time;durP1;ratioP1;P1;durP2;ratioP2;P2;SDS_P1;SDS_P2;PMS_P1;PMS_P2;Temp;Humidity;BMP_temperature;BMP_pressure;BME280_temperature;BME280_humidity;BME280_pressure;Samples;Min_cycle;Max_cycle;Signal;HPM_P1;HPM_P2
2023/08/06 00:02:19;;;;;;;6.20;4.20;;;14.80;93.40;;;;;;5073620;28;20162;-48
2023/08/06 00:04:46;;;;;;;6.07;4.60;;;14.80;93.40;;;;;;5073003;28;20025;-49
2023/08/06 00:07:13;;;;;;;6.53;4.25;;;14.80;93.40;;;;;;5073795;28;20071;-48
2023/08/06 00:09:41;;;;;;;7.15;4.32;;;14.70;93.30;;;;;;5073007;28;20028;-49
2023/08/06 00:12:10;;;;;;;6.45;4.55;;;14.70;93.20;;;;;;5055558;28;20166;-52
2023/08/06 00:14:35;;;;;;;4.95;3.92;;;14.70;93.20;;;;;;5073472;28;20031;-49
2023/08/06 00:17:01;;;;;;;7.85;4.38;;;14.70;93.10;;;;;;5056200;28;20489;-48
2023/08/06 00:19:27;;;;;;;7.70;3.90;;;14.60;93.10;;;;;;5055529;28;20024;-48
2023/08/06 00:21:54;;;;;;;8.10;4.50;;;14.60;93.10;;;;;;5072098;28;20094;-49
2023/08/06 00:24:19;;;;;;;6.35;3.47;;;14.60;93.00;;;;;;5073388;28;20032;-49
2023/08/06 00:26:50;;;;;;;5.95;4.10;;;14.60;92.90;;;;;;5055030;28;20028;-49
2023/08/06 00:29:17;;;;;;;4.85;3.60;;;14.60;93.00;;;;;;5054559;28;20439;-48
2023/08/06 00:31:43;;;;;;;6.32;3.60;;;14.50;93.00;;;;;;5072893;28;20051;-50
2023/08/06 00:34:09;;;;;;;8.13;4.93;;;14.50;92.90;;;;;;5072001;28;20345;-48
2023/08/06 00:36:35;;;;;;;6.47;4.22;;;14.50;93.00;;;;;;5073156;28;20035;-48
2023/08/06 00:39:02;;;;;;;6.55;4.18;;;14.50;93.10;;;;;;5071503;28;20028;-48
2023/08/06 00:41:31;;;;;;;5.25;3.78;;;14.40;93.00;;;;;;5071811;28;20028;-48
2023/08/06 00:44:00;;;;;;;4.75;3.50;;;14.40;93.00;;;;;;5054884;28;20083;-48
2023/08/06 00:46:27;;;;;;;5.32;3.63;;;14.40;93.00;;;;;;5072124;28;20633;-49
2023/08/06 00:48:55;;;;;;;4.57;3.42;;;14.40;92.90;;;;;;5072205;28;20090;-48
2023/08/06 00:51:24;;;;;;;4.95;3.58;;;14.30;92.80;;;;;;5071575;28;20376;-48
2023/08/06 00:53:52;;;;;;;5.35;3.25;;;14.30;92.80;;;;;;5072444;28;20097;-48
2023/08/06 00:56:19;;;;;;;6.90;3.35;;;14.30;92.80;;;;;;5072192;28;20052;-49
2023/08/06 00:58:49;;;;;;;5.97;3.45;;;14.20;92.70;;;;;;5072137;28;20055;-48
2023/08/06 01:01:16;;;;;;;;;;;14.20;92.70;;;;;;5071453;28;20036;-49
2023/08/06 01:03:45;;;;;;;6.55;3.42;;;14.20;92.60;;;;;;5053887;28;19999;-48
2023/08/06 01:06:13;;;;;;;4.15;2.95;;;14.10;92.60;;;;;;5072312;28;20748;-48
2023/08/06 01:08:54;;;;;;;8.13;3.47;;;14.10;92.60;;;;;;5072376;28;20090;-47
2023/08/06 01:11:50;;;;;;;6.15;2.90;;;14.00;92.50;;;;;;5053424;28;20044;-47
2023/08/06 01:14:27;;;;;;;5.53;2.92;;;14.00;92.50;;;;;;5072786;28;20040;-48
2023/08/06 01:16:58;;;;;;;7.75;3.05;;;13.90;92.60;;;;;;5072674;28;20230;-48
2023/08/06 01:19:27;;;;;;;5.68;3.55;;;13.90;92.60;;;;;;5072064;28;20139;-49
2023/08/06 01:21:54;;;;;;;5.68;2.92;;;13.90;92.50;;;;;;5072426;28;20158;-47
2023/08/06 01:24:21;;;;;;;4.88;2.75;;;13.90;92.60;;;;;;5071888;28;20021;-47
2023/08/06 01:27:02;;;;;;;3.58;2.72;;;13.90;92.70;;;;;;5072490;28;20039;-47
2023/08/06 01:29:47;;;;;;;7.32;3.88;;;13.90;92.70;;;;;;5072529;28;20032;-47
2023/08/06 01:32:14;;;;;;;5.03;3.05;;;13.80;92.70;;;;;;5071708;28;20408;-47
2023/08/06 01:34:44;;;;;;;6.35;3.42;;;13.80;92.90;;;;;;5054819;28;20417;-47
2023/08/06 01:37:12;;;;;;;4.47;3.40;;;13.80;93.10;;;;;;5070626;28;20116;-48
2023/08/06 01:39:42;;;;;;;7.13;3.15;;;13.90;93.20;;;;;;5074489;28;20497;-48
2023/08/06 01:42:11;;;;;;;4.93;3.00;;;13.90;93.10;;;;;;5076311;28;20116;-48
2023/08/06 01:44:39;;;;;;;;;;;13.90;93.10;;;;;;5077102;28;20096;-48
2023/08/06 01:47:08;;;;;;;5.38;2.72;;;13.90;93.10;;;;;;5075790;28;19923;-47
2023/08/06 01:49:35;;;;;;;3.87;2.70;;;13.80;93.10;;;;;;5076376;28;20039;-47
2023/08/06 01:52:01;;;;;;;4.20;3.08;;;13.80;92.80;;;;;;5057533;28;20762;-47
2023/08/06 01:54:27;;;;;;;3.83;2.35;;;13.70;92.80;;;;;;5076295;28;20036;-48
2023/08/06 01:56:58;;;;;;;5.88;3.10;;;13.70;92.90;;;;;;5075435;28;20032;-49
2023/08/06 01:59:25;;;;;;;10.93;4.10;;;13.70;92.80;;;;;;5056102;28;20028;-48
2023/08/06 02:01:51;;;;;;;8.63;2.83;;;13.70;92.70;;;;;;5056157;28;20080;-47
2023/08/06 02:04:17;;;;;;;5.38;2.70;;;13.60;92.80;;;;;;5056191;28;20032;-48
2023/08/06 02:06:44;;;;;;;5.00;2.38;;;13.60;92.90;;;;;;5054774;28;20428;-48
2023/08/06 02:09:09;;;;;;;4.07;2.92;;;13.60;92.90;;;;;;5075901;28;20044;-47
2023/08/06 02:11:35;;;;;;;4.10;2.40;;;13.60;93.00;;;;;;5075318;28;20028;-48
2023/08/06 02:14:01;;;;;;;7.85;3.35;;;13.60;93.00;;;;;;5075796;28;20068;-47
2023/08/06 02:16:27;;;;;;;8.48;2.83;;;13.50;93.00;;;;;;5075170;28;20048;-48
2023/08/06 02:18:54;;;;;;;4.35;3.08;;;13.50;92.90;;;;;;5075600;28;20051;-47
2023/08/06 02:21:21;;;;;;;6.05;2.97;;;13.50;93.00;;;;;;5075520;28;20032;-49
2023/08/06 02:23:48;;;;;;;5.40;2.70;;;13.50;93.20;;;;;;5057499;28;20518;-47
2023/08/06 02:26:15;;;;;;;3.90;3.03;;;13.50;93.10;;;;;;5075524;28;20029;-48
2023/08/06 02:28:41;;;;;;;5.22;3.13;;;13.50;93.30;;;;;;5075690;28;20021;-48
2023/08/06 02:31:08;;;;;;;4.50;2.90;;;13.50;93.30;;;;;;5075391;28;20029;-47
2023/08/06 02:33:35;;;;;;;5.63;2.78;;;13.60;93.30;;;;;;5074895;28;20306;-48
2023/08/06 02:36:04;;;;;;;6.22;3.33;;;13.60;93.30;;;;;;5074543;28;20056;-47
2023/08/06 02:38:30;;;;;;;6.00;3.28;;;13.60;93.40;;;;;;5073625;28;20028;-47
2023/08/06 02:40:57;;;;;;;4.03;2.97;;;13.60;93.50;;;;;;5074076;28;20442;-49
2023/08/06 02:43:23;;;;;;;3.42;2.50;;;13.60;93.50;;;;;;5073599;28;20034;-48
2023/08/06 02:45:50;;;;;;;5.57;3.17;;;13.70;93.50;;;;;;5073738;28;20032;-47
2023/08/06 02:48:18;;;;;;;3.88;2.65;;;13.70;93.60;;;;;;5074335;28;20025;-49
2023/08/06 02:50:45;;;;;;;5.68;2.78;;;13.70;93.50;;;;;;5073025;28;20017;-47
2023/08/06 02:53:12;;;;;;;5.32;2.58;;;13.70;93.50;;;;;;5073827;28;20434;-48
2023/08/06 02:55:46;;;;;;;3.97;2.70;;;13.70;93.50;;;;;;5056284;28;20024;-47
2023/08/06 02:58:14;;;;;;;4.72;2.40;;;13.80;93.70;;;;;;5072881;28;20472;-48
2023/08/06 03:00:42;;;;;;;3.63;2.60;;;13.80;93.60;;;;;;5073687;28;20044;-49
2023/08/06 03:03:08;;;;;;;4.18;2.50;;;13.80;93.70;;;;;;5073934;28;20028;-47
2023/08/06 03:05:38;;;;;;;5.88;2.80;;;13.80;93.70;;;;;;5073813;28;20033;-47
2023/08/06 03:08:05;;;;;;;4.00;2.58;;;13.80;93.60;;;;;;5073253;28;20020;-47
2023/08/06 03:10:31;;;;;;;5.10;2.53;;;13.70;93.60;;;;;;5056199;28;20043;-48
2023/08/06 03:12:58;;;;;;;5.68;2.88;;;13.70;93.60;;;;;;5073748;28;20029;-47
2023/08/06 03:15:28;;;;;;;8.57;2.80;;;13.70;93.60;;;;;;5072885;28;20119;-48
2023/08/06 03:17:58;;;;;;;5.00;2.97;;;13.70;93.60;;;;;;5055969;28;20025;-47
2023/08/06 03:20:25;;;;;;;9.23;3.25;;;13.70;93.70;;;;;;5073850;28;20032;-48
2023/08/06 03:22:52;;;;;;;6.93;2.97;;;13.70;93.80;;;;;;5073103;28;20032;-47
2023/08/06 03:25:19;;;;;;;3.42;2.65;;;13.70;93.80;;;;;;5073456;28;20419;-49
2023/08/06 03:27:48;;;;;;;3.90;2.90;;;13.80;93.80;;;;;;5073588;28;20020;-47
2023/08/06 03:30:15;;;;;;;4.15;2.65;;;13.80;93.90;;;;;;5073248;28;20024;-50
2023/08/06 03:32:42;;;;;;;4.38;3.13;;;13.80;93.90;;;;;;5072605;28;20860;-48
2023/08/06 03:35:08;;;;;;;3.72;2.67;;;13.80;93.90;;;;;;5032250;28;1155827;-47
2023/08/06 03:37:35;;;;;;;4.15;2.72;;;13.90;94.00;;;;;;5074413;28;20128;-48
2023/08/06 03:40:03;;;;;;;4.50;2.85;;;13.90;94.10;;;;;;5056372;28;20404;-48
2023/08/06 03:42:30;;;;;;;4.55;3.20;;;13.90;94.10;;;;;;5073455;28;20013;-48
2023/08/06 03:44:56;;;;;;;4.07;3.17;;;13.90;94.20;;;;;;5074211;28;20056;-49
2023/08/06 03:47:23;;;;;;;4.68;2.35;;;13.90;94.20;;;;;;5073451;28;20373;-49
2023/08/06 03:49:50;;;;;;;5.32;3.30;;;13.90;94.10;;;;;;5073954;28;20050;-47
2023/08/06 03:52:17;;;;;;;7.50;2.75;;;14.00;94.10;;;;;;5073188;28;20027;-49
2023/08/06 03:54:44;;;;;;;5.97;3.30;;;14.00;94.10;;;;;;5056426;28;20036;-49
2023/08/06 03:57:13;;;;;;;3.75;2.70;;;13.90;94.10;;;;;;5056262;28;20064;-47
2023/08/06 03:59:39;;;;;;;5.10;3.60;;;14.00;94.20;;;;;;5073760;28;20442;-47
2023/08/06 04:02:06;;;;;;;8.05;3.08;;;14.00;94.20;;;;;;5072338;28;20040;-48
2023/08/06 04:04:33;;;;;;;5.95;3.17;;;14.10;94.20;;;;;;5073743;28;20032;-47
2023/08/06 04:07:00;;;;;;;3.90;2.90;;;14.10;94.20;;;;;;5073023;28;20017;-48
2023/08/06 04:09:28;;;;;;;4.75;3.17;;;14.10;94.20;;;;;;5073381;28;20780;-48
2023/08/06 04:11:55;;;;;;;4.20;3.03;;;14.10;94.20;;;;;;5072914;28;20044;-48
2023/08/06 04:14:21;;;;;;;4.82;3.25;;;14.10;94.20;;;;;;5073673;28;20029;-48
2023/08/06 04:16:50;;;;;;;4.72;3.63;;;14.10;94.20;;;;;;5072424;28;20043;-50
2023/08/06 04:19:16;;;;;;;5.22;3.13;;;14.10;94.30;;;;;;5072921;28;20028;-51
2023/08/06 04:21:43;;;;;;;6.15;3.20;;;14.20;94.20;;;;;;5055696;28;20111;-49
2023/08/06 04:24:10;;;;;;;4.03;3.03;;;14.20;94.30;;;;;;5072793;28;20476;-48
2023/08/06 04:26:37;;;;;;;4.90;3.17;;;14.20;94.40;;;;;;5073155;28;20031;-48
2023/08/06 04:29:04;;;;;;;6.75;3.08;;;14.20;94.40;;;;;;5072184;28;20035;-48
2023/08/06 04:31:29;;;;;;;7.07;3.53;;;14.20;94.40;;;;;;5072373;28;20024;-49
2023/08/06 04:33:58;;;;;;;4.95;3.30;;;14.30;94.40;;;;;;5073092;28;20158;-49
2023/08/06 04:36:25;;;;;;;4.32;2.90;;;14.30;94.40;;;;;;5054327;28;20052;-48
2023/08/06 04:38:53;;;;;;;4.15;2.92;;;14.30;94.40;;;;;;5073237;28;20032;-48
2023/08/06 04:41:20;;;;;;;4.22;2.58;;;14.30;94.40;;;;;;5072927;28;20075;-49
2023/08/06 04:43:45;;;;;;;3.65;2.67;;;14.30;94.40;;;;;;5072712;28;20028;-48
2023/08/06 04:46:11;;;;;;;4.35;3.00;;;14.40;94.40;;;;;;5073043;28;20048;-48
2023/08/06 04:48:38;;;;;;;3.75;2.72;;;14.40;94.40;;;;;;5073094;28;20024;-48
2023/08/06 04:51:05;;;;;;;3.35;2.50;;;14.40;94.30;;;;;;5073008;28;20028;-49
2023/08/06 04:53:31;;;;;;;6.25;2.75;;;14.40;94.40;;;;;;5072179;28;20100;-48
2023/08/06 04:55:58;;;;;;;4.25;2.88;;;14.40;94.30;;;;;;5072845;28;20038;-48
2023/08/06 04:58:25;;;;;;;5.35;3.50;;;14.40;94.40;;;;;;5053616;28;20033;-48
2023/08/06 05:00:53;;;;;;;4.75;3.15;;;14.40;94.30;;;;;;5072296;28;20039;-49
2023/08/06 05:03:22;;;;;;;4.03;2.97;;;14.40;94.40;;;;;;5071861;28;20048;-48
2023/08/06 05:05:50;;;;;;;4.30;3.10;;;14.50;94.40;;;;;;5072816;28;20020;-48
2023/08/06 05:08:17;;;;;;;4.05;2.85;;;14.50;94.40;;;;;;5072781;28;20075;-48
2023/08/06 05:10:45;;;;;;;3.70;2.78;;;14.50;94.40;;;;;;5072629;28;20499;-49
2023/08/06 05:13:11;;;;;;;4.95;2.88;;;14.50;94.40;;;;;;5072033;28;20113;-50
2023/08/06 05:15:39;;;;;;;3.72;2.67;;;14.50;94.40;;;;;;5054950;28;20119;-48
2023/08/06 05:18:08;;;;;;;6.10;2.92;;;14.50;94.40;;;;;;5072035;28;20074;-48
2023/08/06 05:20:41;;;;;;;4.03;2.70;;;14.50;94.40;;;;;;5054731;28;20028;-50
2023/08/06 05:23:08;;;;;;;4.75;3.03;;;14.60;94.40;;;;;;5072742;28;20028;-49
2023/08/06 05:25:41;;;;;;;5.85;3.58;;;14.60;94.40;;;;;;5053685;28;20020;-50
2023/08/06 05:28:08;;;;;;;4.18;3.33;;;14.60;94.40;;;;;;5072423;28;20025;-48
2023/08/06 05:30:39;;;;;;;4.03;2.75;;;14.60;94.40;;;;;;5071725;28;20020;-50
2023/08/06 05:33:11;;;;;;;4.40;3.28;;;14.60;94.40;;;;;;5053326;28;20068;-48
2023/08/06 05:35:40;;;;;;;4.72;3.10;;;14.60;94.30;;;;;;5072276;28;20131;-48
2023/08/06 05:38:07;;;;;;;4.65;3.03;;;14.70;94.40;;;;;;5072522;28;20090;-48
2023/08/06 05:40:36;;;;;;;4.85;3.15;;;14.70;94.40;;;;;;5071622;28;20024;-50
2023/08/06 05:43:02;;;;;;;4.35;2.92;;;14.70;94.40;;;;;;5072306;28;20346;-48
2023/08/06 05:45:29;;;;;;;4.75;3.35;;;14.70;94.40;;;;;;5071729;28;20036;-48
2023/08/06 05:47:58;;;;;;;5.63;3.50;;;14.80;94.50;;;;;;5054851;28;20077;-49
2023/08/06 05:50:24;;;;;;;6.38;3.45;;;14.80;94.50;;;;;;5072022;28;20040;-48
2023/08/06 05:52:51;;;;;;;4.80;3.65;;;14.80;94.50;;;;;;5072449;28;20472;-48
2023/08/06 05:55:20;;;;;;;3.97;2.75;;;14.90;94.40;;;;;;5072293;28;20094;-49
2023/08/06 05:57:46;;;;;;;4.40;3.08;;;14.90;94.50;;;;;;5071603;28;20036;-49
2023/08/06 06:00:13;;;;;;;5.40;3.97;;;14.90;94.50;;;;;;5054635;28;20028;-49
2023/08/06 06:02:40;;;;;;;5.72;3.45;;;14.90;94.50;;;;;;5071319;28;20043;-49
2023/08/06 06:05:07;;;;;;;4.60;3.72;;;15.00;94.50;;;;;;5038051;28;20510;-50
2023/08/06 06:07:36;;;;;;;4.82;3.63;;;15.10;94.50;;;;;;5072109;28;20043;-50
2023/08/06 06:10:04;;;;;;;5.70;3.75;;;15.10;94.50;;;;;;5071559;28;20060;-51
2023/08/06 06:12:33;;;;;;;5.57;4.40;;;15.20;94.50;;;;;;5072217;28;20020;-49
2023/08/06 06:15:00;;;;;;;5.57;3.53;;;15.30;94.60;;;;;;5071679;28;20734;-51
2023/08/06 06:17:33;;;;;;;4.43;3.30;;;15.30;94.50;;;;;;5072304;28;20041;-50
2023/08/06 06:19:59;;;;;;;4.03;2.92;;;15.40;94.50;;;;;;5054358;28;20020;-49
2023/08/06 06:22:28;;;;;;;4.50;3.15;;;15.30;94.20;;;;;;5071376;28;20521;-50
2023/08/06 06:24:55;;;;;;;5.55;3.78;;;15.40;94.30;;;;;;5072748;28;20025;-49
2023/08/06 06:27:21;;;;;;;4.07;3.25;;;15.40;94.30;;;;;;5075576;28;20052;-51
2023/08/06 06:29:48;;;;;;;4.57;3.63;;;15.40;94.30;;;;;;5075037;28;20449;-51
2023/08/06 06:32:15;;;;;;;6.22;3.50;;;15.50;94.30;;;;;;5075667;28;20471;-54
2023/08/06 06:34:43;;;;;;;4.68;3.42;;;15.60;94.40;;;;;;5075527;28;20040;-51
2023/08/06 06:37:10;;;;;;;4.57;3.63;;;15.70;94.40;;;;;;5074693;28;20103;-49
2023/08/06 06:39:35;;;;;;;3.83;3.22;;;15.70;94.40;;;;;;5075378;28;20059;-50
2023/08/06 06:42:01;;;;;;;4.30;3.50;;;15.80;94.40;;;;;;5075057;28;20090;-50
2023/08/06 06:44:28;;;;;;;4.40;3.60;;;15.90;94.30;;;;;;5057788;28;20028;-50
2023/08/06 06:46:57;;;;;;;4.53;3.83;;;15.90;94.30;;;;;;5057826;28;20162;-51
2023/08/06 06:49:27;;;;;;;7.30;4.45;;;16.00;94.30;;;;;;5074750;28;20028;-52
2023/08/06 06:51:54;;;;;;;5.47;4.43;;;16.00;94.30;;;;;;5074723;28;20043;-49
2023/08/06 06:54:21;;;;;;;6.15;4.43;;;16.20;94.40;;;;;;5075286;28;20572;-51
2023/08/06 06:56:50;;;;;;;5.43;3.67;;;16.20;94.30;;;;;;5075118;28;20339;-55
2023/08/06 06:59:17;;;;;;;5.07;3.95;;;16.30;94.30;;;;;;5075194;28;20368;-51
2023/08/06 07:01:44;;;;;;;5.53;3.78;;;16.40;94.10;;;;;;5074366;28;20357;-48
2023/08/06 07:04:13;;;;;;;4.80;3.70;;;16.50;94.20;;;;;;5074946;28;20033;-49
2023/08/06 07:06:40;;;;;;;6.47;5.05;;;16.60;94.10;;;;;;5075106;28;20021;-49
2023/08/06 07:09:10;;;;;;;6.40;4.38;;;16.70;94.00;;;;;;5074334;28;20405;-49
2023/08/06 07:11:36;;;;;;;5.18;3.85;;;16.80;93.90;;;;;;5074497;28;20059;-49
2023/08/06 07:14:05;;;;;;;7.28;5.35;;;16.80;93.60;;;;;;5073530;28;20036;-48
2023/08/06 07:16:31;;;;;;;9.13;6.47;;;16.80;93.40;;;;;;5056800;28;20032;-50
2023/08/06 07:18:58;;;;;;;8.88;4.63;;;16.90;93.10;;;;;;5074647;28;20071;-49
2023/08/06 07:21:25;;;;;;;6.20;5.22;;;16.90;93.10;;;;;;5073922;28;20024;-49
2023/08/06 07:23:51;;;;;;;6.90;5.18;;;16.90;92.60;;;;;;5074634;28;20627;-50
2023/08/06 07:26:18;;;;;;;6.78;5.60;;;16.90;92.80;;;;;;5074159;28;20043;-49
2023/08/06 07:28:47;;;;;;;6.35;5.75;;;17.00;92.00;;;;;;5074568;28;20033;-49
2023/08/06 07:31:18;;;;;;;6.23;5.60;;;17.00;92.20;;;;;;5073414;28;20485;-49
2023/08/06 07:33:47;;;;;;;6.05;4.85;;;17.10;92.10;;;;;;5074379;28;20064;-51
2023/08/06 07:36:14;;;;;;;7.60;5.57;;;17.20;92.20;;;;;;5073156;28;20084;-49
2023/08/06 07:38:44;;;;;;;7.88;5.38;;;17.30;91.90;;;;;;5038251;28;20123;-49
2023/08/06 07:41:11;;;;;;;8.43;7.40;;;17.40;92.00;;;;;;5054646;28;20032;-49
2023/08/06 07:43:37;;;;;;;7.82;6.68;;;17.40;91.50;;;;;;5074030;28;20032;-49
2023/08/06 07:46:04;;;;;;;7.47;6.53;;;17.40;91.30;;;;;;5074398;28;20413;-52
2023/08/06 07:48:31;;;;;;;6.75;6.03;;;17.40;91.10;;;;;;5074388;28;20024;-49
2023/08/06 07:51:01;;;;;;;8.00;6.18;;;17.40;90.80;;;;;;5073456;28;20028;-52
2023/08/06 07:53:29;;;;;;;7.97;5.95;;;17.40;91.00;;;;;;5056280;28;20020;-49
2023/08/06 07:55:56;;;;;;;6.03;5.43;;;17.50;91.00;;;;;;5056790;28;20032;-49
2023/08/06 07:58:24;;;;;;;7.22;5.32;;;17.50;91.00;;;;;;5073781;28;20032;-48
2023/08/06 08:00:51;;;;;;;5.95;5.28;;;17.50;90.30;;;;;;5074218;28;20026;-50
2023/08/06 08:03:19;;;;;;;8.20;5.20;;;17.60;90.90;;;;;;5073110;28;20072;-49
2023/08/06 08:05:46;;;;;;;6.50;4.93;;;17.70;90.80;;;;;;5073791;28;20021;-52
2023/08/06 08:08:13;;;;;;;4.78;4.28;;;17.80;90.40;;;;;;5056510;28;20661;-49
2023/08/06 08:10:44;;;;;;;7.35;4.80;;;17.60;89.60;;;;;;5072943;28;20047;-51
2023/08/06 08:13:13;;;;;;;6.97;4.93;;;17.70;90.00;;;;;;5073568;28;20021;-50
2023/08/06 08:15:38;;;;;;;6.07;4.10;;;17.70;89.90;;;;;;5073706;28;20345;-50
2023/08/06 08:18:04;;;;;;;7.47;4.97;;;17.80;89.70;;;;;;5072851;28;20032;-49
2023/08/06 08:20:35;;;;;;;5.10;4.20;;;17.70;89.10;;;;;;5073609;28;20020;-50
2023/08/06 08:23:05;;;;;;;7.00;4.22;;;17.70;89.30;;;;;;5073281;28;20037;-49
2023/08/06 08:25:31;;;;;;;4.32;3.65;;;17.70;89.20;;;;;;5072606;28;20028;-50
2023/08/06 08:28:03;;;;;;;4.00;3.25;;;17.60;89.00;;;;;;5073682;28;20033;-52
2023/08/06 08:30:30;;;;;;;6.18;4.25;;;17.70;89.20;;;;;;5073330;28;20028;-53
2023/08/06 08:32:56;;;;;;;4.22;3.58;;;17.70;89.40;;;;;;5072354;28;20474;-49
2023/08/06 08:35:21;;;;;;;5.65;4.70;;;17.80;89.50;;;;;;5072390;28;20052;-51
2023/08/06 08:37:51;;;;;;;5.72;4.18;;;17.70;88.80;;;;;;5073023;28;20044;-50
2023/08/06 08:40:20;;;;;;;5.53;3.70;;;17.60;87.90;;;;;;5072691;28;20111;-50
2023/08/06 08:42:47;;;;;;;3.47;2.78;;;17.70;88.50;;;;;;5073230;28;20036;-49
2023/08/06 08:45:15;;;;;;;5.13;2.83;;;17.70;88.40;;;;;;5054492;28;20028;-52
2023/08/06 08:47:48;;;;;;;5.72;3.47;;;17.70;88.10;;;;;;5072624;28;20438;-49
2023/08/06 08:50:16;;;;;;;5.13;3.83;;;17.80;88.30;;;;;;5055274;28;20036;-49
2023/08/06 08:52:45;;;;;;;6.32;3.65;;;17.80;88.40;;;;;;5054964;28;20123;-48
2023/08/06 08:55:14;;;;;;;6.03;3.22;;;17.80;87.80;;;;;;5073192;28;20037;-50
2023/08/06 08:57:44;;;;;;;5.57;2.97;;;17.90;88.10;;;;;;5044996;28;20067;-53
2023/08/06 09:00:14;;;;;;;5.43;3.53;;;17.80;87.90;;;;;;5052741;28;20065;-50
2023/08/06 09:02:42;;;;;;;5.70;3.25;;;17.80;87.70;;;;;;5057830;28;20040;-48
2023/08/06 09:05:10;;;;;;;5.30;4.03;;;17.80;87.90;;;;;;5072958;28;20055;-49
2023/08/06 09:07:44;;;;;;;6.50;3.75;;;17.90;87.80;;;;;;5055061;28;20796;-50
2023/08/06 09:10:17;;;;;;;5.07;2.88;;;17.90;87.00;;;;;;5072064;28;20094;-52
2023/08/06 09:12:46;;;;;;;4.20;3.20;;;17.80;87.20;;;;;;5072290;28;20086;-48
2023/08/06 09:15:13;;;;;;;4.40;3.65;;;17.80;87.30;;;;;;5054582;28;20032;-50
2023/08/06 09:17:40;;;;;;;4.82;2.72;;;17.90;87.00;;;;;;5054244;28;20086;-49
2023/08/06 09:20:14;;;;;;;5.03;4.40;;;17.80;86.90;;;;;;5072650;28;20024;-50
2023/08/06 09:22:45;;;;;;;6.38;3.67;;;17.90;87.30;;;;;;5072334;28;20029;-49
2023/08/06 09:25:20;;;;;;;4.55;3.63;;;17.80;86.90;;;;;;5072009;28;20020;-50
2023/08/06 09:27:52;;;;;;;5.38;3.78;;;17.90;87.30;;;;;;5072618;28;20046;-53
2023/08/06 09:30:31;;;;;;;4.97;3.30;;;17.90;85.90;;;;;;5072362;28;20361;-49
2023/08/06 09:33:01;;;;;;;4.88;3.67;;;17.90;85.90;;;;;;5040297;28;20446;-53
2023/08/06 09:35:31;;;;;;;6.47;3.22;;;17.90;85.40;;;;;;5052381;28;20539;-52
2023/08/06 09:38:09;;;;;;;4.72;3.67;;;17.90;85.40;;;;;;5060551;28;20098;-50
2023/08/06 09:40:38;;;;;;;4.78;3.30;;;18.10;85.80;;;;;;5072556;28;20036;-51
2023/08/06 09:43:07;;;;;;;6.15;3.30;;;18.10;85.80;;;;;;5071401;28;20036;-50
2023/08/06 09:45:51;;;;;;;8.18;4.55;;;18.20;85.90;;;;;;5072602;28;20456;-50
2023/08/06 09:48:24;;;;;;;5.28;3.40;;;18.10;84.50;;;;;;5071922;28;20024;-50
2023/08/06 09:50:52;;;;;;;4.40;3.35;;;18.10;85.00;;;;;;5072450;28;20040;-50
2023/08/06 09:53:21;;;;;;;6.47;3.88;;;18.10;84.80;;;;;;5072313;28;20531;-49
2023/08/06 09:55:48;;;;;;;6.15;3.58;;;18.10;85.30;;;;;;5055118;28;20036;-57
2023/08/06 09:58:15;;;;;;;7.13;4.20;;;18.00;84.90;;;;;;5071430;28;20051;-52
2023/08/06 10:00:41;;;;;;;5.22;3.65;;;18.00;84.90;;;;;;5056701;28;20119;-48
2023/08/06 10:03:10;;;;;;;7.07;4.55;;;18.10;85.00;;;;;;5074757;28;20115;-49
2023/08/06 10:05:38;;;;;;;4.68;3.97;;;18.10;85.20;;;;;;5075792;28;20021;-48
2023/08/06 10:08:09;;;;;;;6.00;3.92;;;18.10;85.20;;;;;;5076052;28;20071;-49
2023/08/06 10:10:37;;;;;;;5.05;4.07;;;18.10;85.20;;;;;;5074828;28;20380;-52
2023/08/06 10:13:10;;;;;;;5.43;3.85;;;18.20;85.60;;;;;;5076050;28;20064;-49
2023/08/06 10:15:41;;;;;;;5.07;3.28;;;18.20;85.80;;;;;;5075919;28;20028;-52
2023/08/06 10:18:09;;;;;;;4.97;3.90;;;18.20;86.10;;;;;;5075374;28;20087;-49
2023/08/06 10:20:36;;;;;;;6.68;4.20;;;18.20;85.40;;;;;;5075809;28;20030;-49
2023/08/06 10:23:32;;;;;;;7.45;3.90;;;18.20;85.50;;;;;;5074894;28;20039;-53
2023/08/06 10:25:59;;;;;;;7.80;4.20;;;18.30;85.40;;;;;;5057930;28;20071;-49
2023/08/06 10:28:38;;;;;;;5.95;3.90;;;18.40;85.60;;;;;;5075520;28;20030;-52
2023/08/06 10:31:11;;;;;;;5.63;3.55;;;18.40;85.30;;;;;;5074420;28;20067;-49
2023/08/06 10:33:43;;;;;;;6.10;3.65;;;18.40;84.60;;;;;;5075304;28;20071;-49
2023/08/06 10:36:10;;;;;;;9.18;4.47;;;18.40;84.20;;;;;;5074673;28;20048;-49
2023/08/06 10:38:57;;;;;;;5.90;4.63;;;18.40;84.60;;;;;;5075280;28;20078;-48
2023/08/06 10:41:28;;;;;;;6.32;4.18;;;18.50;84.40;;;;;;5074180;28;20048;-49
2023/08/06 10:44:08;;;;;;;4.50;3.25;;;18.50;84.90;;;;;;5075327;28;20095;-50
2023/08/06 10:46:36;;;;;;;5.30;3.60;;;18.60;84.50;;;;;;5075466;28;20079;-49
2023/08/06 10:49:04;;;;;;;5.85;3.97;;;18.70;84.80;;;;;;5075232;28;20027;-49
2023/08/06 10:51:31;;;;;;;5.38;3.60;;;18.70;84.20;;;;;;5074537;28;20024;-50
2023/08/06 10:54:02;;;;;;;7.43;3.85;;;18.80;83.60;;;;;;5074160;28;20033;-50
2023/08/06 10:56:31;;;;;;;4.88;3.60;;;18.90;83.60;;;;;;5075248;28;20103;-49
2023/08/06 10:59:00;;;;;;;4.72;3.38;;;19.10;83.80;;;;;;5074453;28;20489;-49
2023/08/06 11:01:30;;;;;;;4.55;3.55;;;19.00;82.00;;;;;;5074907;28;20445;-50
2023/08/06 11:04:05;;;;;;;5.07;3.58;;;18.90;81.80;;;;;;5074951;28;20024;-52
2023/08/06 11:06:33;;;;;;;4.45;3.45;;;19.10;82.90;;;;;;5074309;28;20040;-51
2023/08/06 11:09:01;;;;;;;5.45;3.00;;;19.10;82.20;;;;;;5074916;28;20100;-50
2023/08/06 11:11:29;;;;;;;4.93;3.20;;;19.20;82.50;;;;;;5074616;28;20404;-51
2023/08/06 11:13:58;;;;;;;5.35;3.38;;;19.30;81.90;;;;;;5074612;28;20124;-50
2023/08/06 11:16:29;;;;;;;4.07;2.80;;;19.30;81.90;;;;;;5074222;28;20036;-49
2023/08/06 11:18:57;;;;;;;5.88;3.58;;;19.40;82.10;;;;;;5074818;28;20028;-50
2023/08/06 11:21:27;;;;;;;13.90;5.28;;;19.50;82.20;;;;;;5074453;28;20033;-51
2023/08/06 11:23:55;;;;;;;8.85;4.43;;;19.50;81.90;;;;;;5074615;28;20025;-49
2023/08/06 11:26:23;;;;;;;7.72;5.25;;;19.60;83.00;;;;;;5074624;28;20025;-53
2023/08/06 11:28:54;;;;;;;8.20;4.82;;;19.70;82.20;;;;;;5073597;28;20370;-51
2023/08/06 11:31:23;;;;;;;9.23;5.53;;;19.60;82.10;;;;;;5074693;28;20044;-53
2023/08/06 11:33:51;;;;;;;8.00;4.80;;;19.60;82.20;;;;;;5074346;28;20032;-51
2023/08/06 11:36:29;;;;;;;10.20;8.07;;;19.50;81.60;;;;;;5073320;28;20056;-50
2023/08/06 11:38:56;;;;;;;7.55;3.97;;;19.60;81.50;;;;;;5073345;28;20398;-50
2023/08/06 11:41:23;;;;;;;6.50;5.03;;;19.60;81.60;;;;;;5073943;28;20024;-50
2023/08/06 11:43:55;;;;;;;7.55;4.88;;;19.60;81.10;;;;;;5073899;28;20449;-52
2023/08/06 11:46:23;;;;;;;8.48;4.85;;;19.60;80.70;;;;;;5073929;28;20465;-49
2023/08/06 11:48:56;;;;;;;4.88;3.88;;;19.70;80.40;;;;;;5048077;28;20370;-52
2023/08/06 11:51:27;;;;;;;7.40;3.42;;;19.60;80.60;;;;;;5054347;28;20052;-51
2023/08/06 11:53:58;;;;;;;7.07;4.82;;;19.70;81.80;;;;;;5060393;28;20139;-50
2023/08/06 11:56:28;;;;;;;7.50;4.15;;;19.80;81.30;;;;;;5073901;28;20360;-53
2023/08/06 11:58:58;;;;;;;5.45;4.13;;;19.90;81.20;;;;;;5073300;28;20067;-51
2023/08/06 12:01:28;;;;;;;6.97;4.10;;;19.90;81.20;;;;;;5056313;28;20063;-53
2023/08/06 12:04:06;;;;;;;12.02;4.82;;;20.10;81.20;;;;;;5073931;28;20029;-54
2023/08/06 12:06:44;;;;;;;8.80;5.13;;;20.20;80.50;;;;;;5073861;28;20441;-51
2023/08/06 12:09:10;;;;;;;6.32;4.22;;;20.20;79.60;;;;;;5073107;28;20107;-51
2023/08/06 12:11:39;;;;;;;6.72;4.07;;;20.20;78.10;;;;;;5073646;28;20048;-53
2023/08/06 12:14:06;;;;;;;7.80;3.90;;;20.20;79.00;;;;;;5072617;28;20032;-49
2023/08/06 12:16:32;;;;;;;5.75;3.75;;;20.30;79.60;;;;;;5073433;28;20441;-51
2023/08/06 12:19:04;;;;;;;6.18;5.10;;;20.20;78.60;;;;;;5073360;28;20028;-50
2023/08/06 12:21:31;;;;;;;6.10;4.82;;;20.30;79.30;;;;;;5073296;28;20043;-50
2023/08/06 12:24:00;;;;;;;5.45;4.07;;;20.30;77.70;;;;;;5072097;28;20028;-49
2023/08/06 12:26:27;;;;;;;5.25;3.60;;;20.30;78.40;;;;;;5073525;28;20310;-53
2023/08/06 12:28:55;;;;;;;8.10;4.15;;;20.40;78.50;;;;;;5072578;28;20548;-50
2023/08/06 12:31:21;;;;;;;7.32;4.07;;;20.40;77.30;;;;;;5073600;28;20032;-49
2023/08/06 12:33:48;;;;;;;8.57;4.65;;;20.30;77.20;;;;;;5055132;28;20040;-53
2023/08/06 12:36:15;;;;;;;6.82;3.67;;;20.30;78.80;;;;;;5072943;28;20080;-52
2023/08/06 12:38:44;;;;;;;5.60;4.05;;;20.40;77.30;;;;;;5072216;28;20033;-49
2023/08/06 12:41:11;;;;;;;7.45;3.92;;;20.30;77.80;;;;;;5072987;28;20032;-48
2023/08/06 12:43:38;;;;;;;5.95;3.90;;;20.40;78.30;;;;;;5072298;28;20040;-48
2023/08/06 12:46:04;;;;;;;6.32;4.50;;;20.60;79.20;;;;;;5072979;28;20504;-51
2023/08/06 12:48:30;;;;;;;5.15;3.72;;;20.70;76.60;;;;;;5073011;28;20356;-53
2023/08/06 12:50:57;;;;;;;5.13;3.63;;;20.50;76.40;;;;;;5054183;28;20358;-52
2023/08/06 12:53:24;;;;;;;6.13;3.60;;;20.40;77.00;;;;;;5055475;28;20051;-49
2023/08/06 12:55:53;;;;;;;6.65;4.30;;;20.40;76.00;;;;;;5073054;28;20460;-50